sensor_id;sensor_type;location;lat;lon;timestamp;P1;durP1;ratioP1;P2;durP2;ratioP2
45198;SDS011;30941;46.422;18.772;2024-02-21T00:01:16;9.52;;;4.60;;
45198;SDS011;30941;46.422;18.772;2024-02-21T00:03:42;5.70;;;3.67;;
45198;SDS011;30941;46.422;18.772;2024-02-21T00:06:07;6.28;;;3.85;;
45198;SDS011;30941;46.422;18.772;2024-02-21T00:08:33;9.00;;;4.22;;
45198;SDS011;30941;46.422;18.772;2024-02-21T00:10:58;7.10;;;4.32;;
45198;SDS011;30941;46.422;18.772;2024-02-21T00:13:24;6.78;;;4.10;;
45198;SDS011;30941;46.422;18.772;2024-02-21T00:15:49;9.25;;;3.78;;
45198;SDS011;30941;46.422;18.772;2024-02-21T00:18:14;6.60;;;4.00;;
45198;SDS011;30941;46.422;18.772;2024-02-21T00:20:40;6.07;;;3.63;;
45198;SDS011;30941;46.422;18.772;2024-02-21T00:23:05;5.82;;;3.30;;
45198;SDS011;30941;46.422;18.772;2024-02-21T00:25:31;6.32;;;3.80;;
45198;SDS011;30941;46.422;18.772;2024-02-21T00:27:56;7.03;;;3.50;;
45198;SDS011;30941;46.422;18.772;2024-02-21T00:30:21;5.53;;;3.53;;
45198;SDS011;30941;46.422;18.772;2024-02-21T00:32:47;6.68;;;3.55;;
45198;SDS011;30941;46.422;18.772;2024-02-21T00:35:13;5.38;;;3.60;;
45198;SDS011;30941;46.422;18.772;2024-02-21T00:37:39;5.72;;;3.55;;
45198;SDS011;30941;46.422;18.772;2024-02-21T00:40:04;7.03;;;3.50;;
45198;SDS011;30941;46.422;18.772;2024-02-21T00:42:30;4.93;;;3.45;;
45198;SDS011;30941;46.422;18.772;2024-02-21T00:44:55;5.60;;;3.60;;
45198;SDS011;30941;46.422;18.772;2024-02-21T00:47:21;5.72;;;3.22;;
45198;SDS011;30941;46.422;18.772;2024-02-21T00:49:46;5.85;;;3.53;;
45198;SDS011;30941;46.422;18.772;2024-02-21T00:52:11;9.70;;;3.20;;
45198;SDS011;30941;46.422;18.772;2024-02-21T00:54:37;7.45;;;3.67;;
45198;SDS011;30941;46.422;18.772;2024-02-21T00:57:02;8.55;;;3.72;;
45198;SDS011;30941;46.422;18.772;2024-02-21T00:59:28;6.75;;;3.90;;
45198;SDS011;30941;46.422;18.772;2024-02-21T01:01:53;8.18;;;3.85;;
45198;SDS011;30941;46.422;18.772;2024-02-21T01:04:18;5.55;;;3.65;;
45198;SDS011;30941;46.422;18.772;2024-02-21T01:06:44;8.85;;;3.38;;
45198;SDS011;30941;46.422;18.772;2024-02-21T01:09:10;7.13;;;4.00;;
45198;SDS011;30941;46.422;18.772;2024-02-21T01:11:36;5.38;;;3.63;;
45198;SDS011;30941;46.422;18.772;2024-02-21T01:14:01;7.93;;;3.25;;
45198;SDS011;30941;46.422;18.772;2024-02-21T01:16:27;6.05;;;3.60;;
45198;SDS011;30941;46.422;18.772;2024-02-21T01:18:52;5.05;;;3.00;;
45198;SDS011;30941;46.422;18.772;2024-02-21T01:21:18;4.68;;;2.78;;
45198;SDS011;30941;46.422;18.772;2024-02-21T01:23:43;7.75;;;2.88;;
45198;SDS011;30941;46.422;18.772;2024-02-21T01:26:08;6.45;;;3.10;;
45198;SDS011;30941;46.422;18.772;2024-02-21T01:28:37;4.78;;;3.10;;
45198;SDS011;30941;46.422;18.772;2024-02-21T01:31:03;4.68;;;3.13;;
45198;SDS011;30941;46.422;18.772;2024-02-21T01:33:28;6.18;;;3.17;;
45198;SDS011;30941;46.422;18.772;2024-02-21T01:35:59;4.88;;;2.83;;
45198;SDS011;30941;46.422;18.772;2024-02-21T01:38:25;5.43;;;3.03;;
45198;SDS011;30941;46.422;18.772;2024-02-21T01:40:50;4.75;;;2.75;;
45198;SDS011;30941;46.422;18.772;2024-02-21T01:43:16;6.10;;;2.63;;
45198;SDS011;30941;46.422;18.772;2024-02-21T01:45:45;6.22;;;3.08;;
45198;SDS011;30941;46.422;18.772;2024-02-21T01:48:13;5.57;;;3.10;;
45198;SDS011;30941;46.422;18.772;2024-02-21T01:50:38;5.03;;;2.60;;
45198;SDS011;30941;46.422;18.772;2024-02-21T01:53:03;5.80;;;2.90;;
45198;SDS011;30941;46.422;18.772;2024-02-21T01:55:29;4.25;;;2.60;;
45198;SDS011;30941;46.422;18.772;2024-02-21T01:57:54;7.30;;;3.97;;
45198;SDS011;30941;46.422;18.772;2024-02-21T02:00:20;6.50;;;3.08;;
45198;SDS011;30941;46.422;18.772;2024-02-21T02:02:46;6.05;;;3.00;;
45198;SDS011;30941;46.422;18.772;2024-02-21T02:05:11;6.40;;;2.83;;
45198;SDS011;30941;46.422;18.772;2024-02-21T02:07:37;6.55;;;3.47;;
45198;SDS011;30941;46.422;18.772;2024-02-21T02:10:02;7.57;;;3.80;;
45198;SDS011;30941;46.422;18.772;2024-02-21T02:12:28;5.40;;;3.47;;
45198;SDS011;30941;46.422;18.772;2024-02-21T02:14:59;4.15;;;2.90;;
45198;SDS011;30941;46.422;18.772;2024-02-21T02:17:25;7.00;;;3.30;;
45198;SDS011;30941;46.422;18.772;2024-02-21T02:19:51;6.82;;;3.58;;
45198;SDS011;30941;46.422;18.772;2024-02-21T02:22:17;7.22;;;3.30;;
45198;SDS011;30941;46.422;18.772;2024-02-21T02:24:46;6.07;;;3.55;;
45198;SDS011;30941;46.422;18.772;2024-02-21T02:27:11;6.30;;;3.03;;
45198;SDS011;30941;46.422;18.772;2024-02-21T02:29:36;6.25;;;3.03;;
45198;SDS011;30941;46.422;18.772;2024-02-21T02:32:02;4.38;;;2.88;;
45198;SDS011;30941;46.422;18.772;2024-02-21T02:34:28;6.40;;;3.25;;
45198;SDS011;30941;46.422;18.772;2024-02-21T02:36:53;6.55;;;3.10;;
45198;SDS011;30941;46.422;18.772;2024-02-21T02:39:19;6.93;;;3.30;;
45198;SDS011;30941;46.422;18.772;2024-02-21T02:41:45;5.97;;;3.05;;
45198;SDS011;30941;46.422;18.772;2024-02-21T02:44:10;4.13;;;2.95;;
45198;SDS011;30941;46.422;18.772;2024-02-21T02:46:35;3.95;;;2.60;;
45198;SDS011;30941;46.422;18.772;2024-02-21T02:49:01;4.78;;;2.45;;
45198;SDS011;30941;46.422;18.772;2024-02-21T02:51:26;10.40;;;3.92;;
45198;SDS011;30941;46.422;18.772;2024-02-21T02:53:51;5.10;;;3.05;;
45198;SDS011;30941;46.422;18.772;2024-02-21T02:56:17;6.25;;;3.00;;
45198;SDS011;30941;46.422;18.772;2024-02-21T02:58:42;6.30;;;2.88;;
45198;SDS011;30941;46.422;18.772;2024-02-21T03:01:08;6.57;;;4.40;;
45198;SDS011;30941;46.422;18.772;2024-02-21T03:03:34;4.88;;;2.58;;
45198;SDS011;30941;46.422;18.772;2024-02-21T03:05:59;5.22;;;2.92;;
45198;SDS011;30941;46.422;18.772;2024-02-21T03:08:24;6.95;;;2.88;;
45198;SDS011;30941;46.422;18.772;2024-02-21T03:10:50;4.07;;;2.50;;
45198;SDS011;30941;46.422;18.772;2024-02-21T03:13:15;3.20;;;2.65;;
45198;SDS011;30941;46.422;18.772;2024-02-21T03:15:40;4.85;;;3.00;;
45198;SDS011;30941;46.422;18.772;2024-02-21T03:18:06;8.70;;;2.63;;
45198;SDS011;30941;46.422;18.772;2024-02-21T03:20:31;10.80;;;3.50;;
45198;SDS011;30941;46.422;18.772;2024-02-21T03:22:57;6.35;;;2.53;;
45198;SDS011;30941;46.422;18.772;2024-02-21T03:25:22;6.15;;;3.30;;
45198;SDS011;30941;46.422;18.772;2024-02-21T03:27:48;5.93;;;2.67;;
45198;SDS011;30941;46.422;18.772;2024-02-21T03:30:13;7.07;;;2.83;;
45198;SDS011;30941;46.422;18.772;2024-02-21T03:32:39;4.97;;;2.60;;
45198;SDS011;30941;46.422;18.772;2024-02-21T03:35:04;5.47;;;2.72;;
45198;SDS011;30941;46.422;18.772;2024-02-21T03:37:30;5.90;;;3.17;;
45198;SDS011;30941;46.422;18.772;2024-02-21T03:39:55;7.88;;;4.05;;
45198;SDS011;30941;46.422;18.772;2024-02-21T03:42:21;6.93;;;3.13;;
45198;SDS011;30941;46.422;18.772;2024-02-21T03:44:46;5.18;;;3.55;;
45198;SDS011;30941;46.422;18.772;2024-02-21T03:47:11;5.60;;;3.58;;
45198;SDS011;30941;46.422;18.772;2024-02-21T03:49:37;8.48;;;3.63;;
45198;SDS011;30941;46.422;18.772;2024-02-21T03:52:02;6.55;;;3.22;;
45198;SDS011;30941;46.422;18.772;2024-02-21T03:54:28;6.15;;;2.80;;
45198;SDS011;30941;46.422;18.772;2024-02-21T03:56:53;7.10;;;2.97;;
45198;SDS011;30941;46.422;18.772;2024-02-21T03:59:19;5.38;;;3.17;;
45198;SDS011;30941;46.422;18.772;2024-02-21T04:01:44;5.32;;;3.00;;
45198;SDS011;30941;46.422;18.772;2024-02-21T04:04:10;5.68;;;2.65;;
45198;SDS011;30941;46.422;18.772;2024-02-21T04:06:35;5.82;;;2.88;;
45198;SDS011;30941;46.422;18.772;2024-02-21T04:09:01;6.38;;;2.70;;
45198;SDS011;30941;46.422;18.772;2024-02-21T04:11:27;6.65;;;3.28;;
45198;SDS011;30941;46.422;18.772;2024-02-21T04:13:52;10.25;;;3.22;;
45198;SDS011;30941;46.422;18.772;2024-02-21T04:16:17;9.73;;;3.20;;
45198;SDS011;30941;46.422;18.772;2024-02-21T04:18:43;8.70;;;3.65;;
45198;SDS011;30941;46.422;18.772;2024-02-21T04:21:09;10.00;;;4.18;;
45198;SDS011;30941;46.422;18.772;2024-02-21T04:23:35;7.93;;;3.80;;
45198;SDS011;30941;46.422;18.772;2024-02-21T04:26:00;10.55;;;3.75;;
45198;SDS011;30941;46.422;18.772;2024-02-21T04:28:26;7.47;;;3.53;;
45198;SDS011;30941;46.422;18.772;2024-02-21T04:30:51;12.15;;;4.78;;
45198;SDS011;30941;46.422;18.772;2024-02-21T04:33:16;6.20;;;3.50;;
45198;SDS011;30941;46.422;18.772;2024-02-21T04:35:42;10.43;;;4.32;;
45198;SDS011;30941;46.422;18.772;2024-02-21T04:38:07;8.25;;;3.33;;
45198;SDS011;30941;46.422;18.772;2024-02-21T04:40:33;9.20;;;4.05;;
45198;SDS011;30941;46.422;18.772;2024-02-21T04:42:58;9.88;;;4.13;;
45198;SDS011;30941;46.422;18.772;2024-02-21T04:45:24;7.03;;;3.08;;
45198;SDS011;30941;46.422;18.772;2024-02-21T04:47:49;8.05;;;3.75;;
45198;SDS011;30941;46.422;18.772;2024-02-21T04:50:15;8.15;;;3.38;;
45198;SDS011;30941;46.422;18.772;2024-02-21T04:52:40;8.60;;;3.80;;
45198;SDS011;30941;46.422;18.772;2024-02-21T04:55:06;10.70;;;4.95;;
45198;SDS011;30941;46.422;18.772;2024-02-21T04:57:32;9.07;;;5.47;;
45198;SDS011;30941;46.422;18.772;2024-02-21T04:59:57;15.40;;;7.30;;
45198;SDS011;30941;46.422;18.772;2024-02-21T05:02:23;21.20;;;7.95;;
45198;SDS011;30941;46.422;18.772;2024-02-21T05:04:49;9.60;;;5.70;;
45198;SDS011;30941;46.422;18.772;2024-02-21T05:07:15;8.60;;;4.03;;
45198;SDS011;30941;46.422;18.772;2024-02-21T05:09:41;7.93;;;3.75;;
45198;SDS011;30941;46.422;18.772;2024-02-21T05:12:07;7.70;;;3.17;;
45198;SDS011;30941;46.422;18.772;2024-02-21T05:14:33;7.45;;;3.40;;
45198;SDS011;30941;46.422;18.772;2024-02-21T05:16:58;9.68;;;4.20;;
45198;SDS011;30941;46.422;18.772;2024-02-21T05:19:23;7.35;;;3.92;;
45198;SDS011;30941;46.422;18.772;2024-02-21T05:21:49;9.02;;;4.70;;
45198;SDS011;30941;46.422;18.772;2024-02-21T05:24:14;13.95;;;4.95;;
45198;SDS011;30941;46.422;18.772;2024-02-21T05:26:39;12.85;;;5.35;;
45198;SDS011;30941;46.422;18.772;2024-02-21T05:29:05;9.93;;;5.10;;
45198;SDS011;30941;46.422;18.772;2024-02-21T05:31:42;10.93;;;4.82;;
45198;SDS011;30941;46.422;18.772;2024-02-21T05:34:17;11.35;;;4.30;;
45198;SDS011;30941;46.422;18.772;2024-02-21T05:36:42;8.88;;;4.75;;
45198;SDS011;30941;46.422;18.772;2024-02-21T05:39:08;10.90;;;4.95;;
45198;SDS011;30941;46.422;18.772;2024-02-21T05:41:33;11.68;;;6.68;;
45198;SDS011;30941;46.422;18.772;2024-02-21T05:43:58;14.77;;;8.90;;
45198;SDS011;30941;46.422;18.772;2024-02-21T05:46:24;22.15;;;11.80;;
45198;SDS011;30941;46.422;18.772;2024-02-21T05:48:49;23.50;;;14.13;;
45198;SDS011;30941;46.422;18.772;2024-02-21T05:51:15;29.27;;;18.77;;
45198;SDS011;30941;46.422;18.772;2024-02-21T05:53:40;20.58;;;9.52;;
45198;SDS011;30941;46.422;18.772;2024-02-21T05:56:15;17.13;;;6.30;;
45198;SDS011;30941;46.422;18.772;2024-02-21T05:58:40;9.20;;;5.10;;
45198;SDS011;30941;46.422;18.772;2024-02-21T06:01:06;10.13;;;4.97;;
45198;SDS011;30941;46.422;18.772;2024-02-21T06:03:32;8.85;;;5.22;;
45198;SDS011;30941;46.422;18.772;2024-02-21T06:05:59;10.27;;;5.32;;
45198;SDS011;30941;46.422;18.772;2024-02-21T06:08:24;13.70;;;6.28;;
45198;SDS011;30941;46.422;18.772;2024-02-21T06:10:50;12.95;;;6.57;;
45198;SDS011;30941;46.422;18.772;2024-02-21T06:13:19;13.63;;;8.60;;
45198;SDS011;30941;46.422;18.772;2024-02-21T06:15:46;10.32;;;6.05;;
45198;SDS011;30941;46.422;18.772;2024-02-21T06:18:11;25.70;;;14.60;;
45198;SDS011;30941;46.422;18.772;2024-02-21T06:20:37;26.13;;;14.38;;
45198;SDS011;30941;46.422;18.772;2024-02-21T06:23:05;13.98;;;7.30;;
45198;SDS011;30941;46.422;18.772;2024-02-21T06:25:30;10.02;;;6.47;;
45198;SDS011;30941;46.422;18.772;2024-02-21T06:27:56;10.55;;;5.20;;
45198;SDS011;30941;46.422;18.772;2024-02-21T06:30:21;13.35;;;5.53;;
45198;SDS011;30941;46.422;18.772;2024-02-21T06:32:47;10.80;;;4.63;;
45198;SDS011;30941;46.422;18.772;2024-02-21T06:35:12;29.67;;;16.95;;
45198;SDS011;30941;46.422;18.772;2024-02-21T06:37:37;35.13;;;19.40;;
45198;SDS011;30941;46.422;18.772;2024-02-21T06:40:03;21.30;;;10.60;;
45198;SDS011;30941;46.422;18.772;2024-02-21T06:42:29;12.52;;;7.72;;
45198;SDS011;30941;46.422;18.772;2024-02-21T06:44:54;16.45;;;7.72;;
45198;SDS011;30941;46.422;18.772;2024-02-21T06:47:21;12.00;;;7.05;;
45198;SDS011;30941;46.422;18.772;2024-02-21T06:49:49;10.20;;;6.07;;
45198;SDS011;30941;46.422;18.772;2024-02-21T06:52:17;10.68;;;4.20;;
45198;SDS011;30941;46.422;18.772;2024-02-21T06:54:45;7.18;;;3.70;;
45198;SDS011;30941;46.422;18.772;2024-02-21T06:57:10;8.48;;;3.90;;
45198;SDS011;30941;46.422;18.772;2024-02-21T06:59:35;10.57;;;4.25;;
45198;SDS011;30941;46.422;18.772;2024-02-21T07:02:01;9.88;;;4.40;;
45198;SDS011;30941;46.422;18.772;2024-02-21T07:04:26;9.93;;;4.45;;
45198;SDS011;30941;46.422;18.772;2024-02-21T07:06:52;9.43;;;4.38;;
45198;SDS011;30941;46.422;18.772;2024-02-21T07:09:17;10.80;;;3.95;;
45198;SDS011;30941;46.422;18.772;2024-02-21T07:11:43;10.32;;;3.90;;
45198;SDS011;30941;46.422;18.772;2024-02-21T07:14:08;7.75;;;4.38;;
45198;SDS011;30941;46.422;18.772;2024-02-21T07:16:34;9.85;;;4.63;;
45198;SDS011;30941;46.422;18.772;2024-02-21T07:18:59;11.27;;;5.15;;
45198;SDS011;30941;46.422;18.772;2024-02-21T07:21:25;10.77;;;4.88;;
45198;SDS011;30941;46.422;18.772;2024-02-21T07:23:50;11.68;;;4.68;;
45198;SDS011;30941;46.422;18.772;2024-02-21T07:26:16;14.40;;;4.95;;
45198;SDS011;30941;46.422;18.772;2024-02-21T07:28:41;14.40;;;6.38;;
45198;SDS011;30941;46.422;18.772;2024-02-21T07:31:06;46.00;;;19.27;;
45198;SDS011;30941;46.422;18.772;2024-02-21T07:33:32;28.20;;;12.82;;
45198;SDS011;30941;46.422;18.772;2024-02-21T07:35:57;18.95;;;10.68;;
45198;SDS011;30941;46.422;18.772;2024-02-21T07:38:23;12.88;;;5.90;;
45198;SDS011;30941;46.422;18.772;2024-02-21T07:40:48;16.80;;;4.95;;
45198;SDS011;30941;46.422;18.772;2024-02-21T07:43:13;11.77;;;5.45;;
45198;SDS011;30941;46.422;18.772;2024-02-21T07:45:39;14.70;;;6.28;;
45198;SDS011;30941;46.422;18.772;2024-02-21T07:48:05;12.88;;;6.18;;
45198;SDS011;30941;46.422;18.772;2024-02-21T07:50:31;14.07;;;5.65;;
45198;SDS011;30941;46.422;18.772;2024-02-21T07:52:56;11.38;;;4.78;;
45198;SDS011;30941;46.422;18.772;2024-02-21T07:55:22;8.75;;;4.57;;
45198;SDS011;30941;46.422;18.772;2024-02-21T07:57:47;10.57;;;5.10;;
45198;SDS011;30941;46.422;18.772;2024-02-21T08:00:13;12.02;;;5.65;;
45198;SDS011;30941;46.422;18.772;2024-02-21T08:02:44;8.15;;;4.10;;
45198;SDS011;30941;46.422;18.772;2024-02-21T08:05:18;7.63;;;3.95;;
45198;SDS011;30941;46.422;18.772;2024-02-21T08:07:44;10.85;;;5.50;;
45198;SDS011;30941;46.422;18.772;2024-02-21T08:10:09;9.48;;;4.88;;
45198;SDS011;30941;46.422;18.772;2024-02-21T08:12:35;12.40;;;4.82;;
45198;SDS011;30941;46.422;18.772;2024-02-21T08:15:00;9.73;;;3.88;;
45198;SDS011;30941;46.422;18.772;2024-02-21T08:17:26;7.60;;;4.57;;
45198;SDS011;30941;46.422;18.772;2024-02-21T08:19:51;11.13;;;3.78;;
45198;SDS011;30941;46.422;18.772;2024-02-21T08:22:16;11.38;;;4.32;;
45198;SDS011;30941;46.422;18.772;2024-02-21T08:24:42;12.88;;;4.10;;
45198;SDS011;30941;46.422;18.772;2024-02-21T08:27:07;8.05;;;4.10;;
45198;SDS011;30941;46.422;18.772;2024-02-21T08:29:32;13.85;;;4.70;;
45198;SDS011;30941;46.422;18.772;2024-02-21T08:31:58;10.45;;;4.00;;
45198;SDS011;30941;46.422;18.772;2024-02-21T08:34:23;13.35;;;5.07;;
45198;SDS011;30941;46.422;18.772;2024-02-21T08:36:49;15.75;;;4.60;;
45198;SDS011;30941;46.422;18.772;2024-02-21T08:39:14;14.30;;;3.88;;
45198;SDS011;30941;46.422;18.772;2024-02-21T08:41:41;9.68;;;3.47;;
45198;SDS011;30941;46.422;18.772;2024-02-21T08:44:07;10.88;;;3.90;;
45198;SDS011;30941;46.422;18.772;2024-02-21T08:46:32;12.38;;;4.05;;
45198;SDS011;30941;46.422;18.772;2024-02-21T08:48:58;13.70;;;4.45;;
45198;SDS011;30941;46.422;18.772;2024-02-21T08:51:23;10.30;;;4.53;;
45198;SDS011;30941;46.422;18.772;2024-02-21T08:53:49;13.85;;;5.20;;
45198;SDS011;30941;46.422;18.772;2024-02-21T08:56:15;10.35;;;3.95;;
45198;SDS011;30941;46.422;18.772;2024-02-21T08:58:40;8.20;;;4.10;;
45198;SDS011;30941;46.422;18.772;2024-02-21T09:01:06;12.45;;;4.18;;
45198;SDS011;30941;46.422;18.772;2024-02-21T09:03:36;9.50;;;4.03;;
45198;SDS011;30941;46.422;18.772;2024-02-21T09:06:02;9.15;;;3.53;;
45198;SDS011;30941;46.422;18.772;2024-02-21T09:08:29;11.77;;;3.40;;
45198;SDS011;30941;46.422;18.772;2024-02-21T09:10:55;13.63;;;3.92;;
45198;SDS011;30941;46.422;18.772;2024-02-21T09:13:20;10.80;;;3.83;;
45198;SDS011;30941;46.422;18.772;2024-02-21T09:15:46;13.18;;;5.07;;
45198;SDS011;30941;46.422;18.772;2024-02-21T09:18:12;13.68;;;4.43;;
45198;SDS011;30941;46.422;18.772;2024-02-21T09:20:37;11.48;;;4.07;;
45198;SDS011;30941;46.422;18.772;2024-02-21T09:23:03;7.82;;;3.50;;
45198;SDS011;30941;46.422;18.772;2024-02-21T09:25:28;11.18;;;3.92;;
45198;SDS011;30941;46.422;18.772;2024-02-21T09:27:54;9.98;;;3.88;;
45198;SDS011;30941;46.422;18.772;2024-02-21T09:30:19;11.85;;;4.32;;
45198;SDS011;30941;46.422;18.772;2024-02-21T09:32:45;10.38;;;3.60;;
45198;SDS011;30941;46.422;18.772;2024-02-21T09:35:10;8.73;;;3.22;;
45198;SDS011;30941;46.422;18.772;2024-02-21T09:37:37;12.40;;;3.90;;
45198;SDS011;30941;46.422;18.772;2024-02-21T09:40:03;10.98;;;4.10;;
45198;SDS011;30941;46.422;18.772;2024-02-21T09:42:33;13.57;;;5.15;;
45198;SDS011;30941;46.422;18.772;2024-02-21T09:45:03;17.55;;;7.25;;
45198;SDS011;30941;46.422;18.772;2024-02-21T09:50:11;11.98;;;4.45;;
45198;SDS011;30941;46.422;18.772;2024-02-21T09:52:38;13.75;;;4.40;;
45198;SDS011;30941;46.422;18.772;2024-02-21T09:55:04;9.52;;;4.10;;
45198;SDS011;30941;46.422;18.772;2024-02-21T09:57:31;10.93;;;3.72;;
45198;SDS011;30941;46.422;18.772;2024-02-21T09:59:56;11.73;;;3.47;;
45198;SDS011;30941;46.422;18.772;2024-02-21T10:02:22;9.85;;;3.97;;
45198;SDS011;30941;46.422;18.772;2024-02-21T10:04:47;13.35;;;4.45;;
45198;SDS011;30941;46.422;18.772;2024-02-21T10:07:13;10.60;;;4.18;;
45198;SDS011;30941;46.422;18.772;2024-02-21T10:09:38;11.77;;;3.97;;
45198;SDS011;30941;46.422;18.772;2024-02-21T10:12:08;11.68;;;3.10;;
45198;SDS011;30941;46.422;18.772;2024-02-21T10:14:35;13.02;;;4.22;;
45198;SDS011;30941;46.422;18.772;2024-02-21T10:17:00;9.85;;;4.05;;
45198;SDS011;30941;46.422;18.772;2024-02-21T10:19:27;11.88;;;3.40;;
45198;SDS011;30941;46.422;18.772;2024-02-21T10:22:05;8.70;;;3.10;;
45198;SDS011;30941;46.422;18.772;2024-02-21T10:24:33;7.00;;;2.80;;
45198;SDS011;30941;46.422;18.772;2024-02-21T10:27:03;8.80;;;3.45;;
45198;SDS011;30941;46.422;18.772;2024-02-21T10:29:30;8.27;;;3.33;;
45198;SDS011;30941;46.422;18.772;2024-02-21T10:34:32;9.23;;;3.33;;
45198;SDS011;30941;46.422;18.772;2024-02-21T10:37:04;9.75;;;3.33;;
45198;SDS011;30941;46.422;18.772;2024-02-21T10:39:34;9.13;;;3.30;;
45198;SDS011;30941;46.422;18.772;2024-02-21T10:42:00;10.07;;;3.80;;
45198;SDS011;30941;46.422;18.772;2024-02-21T10:44:30;10.65;;;3.55;;
45198;SDS011;30941;46.422;18.772;2024-02-21T10:47:00;9.68;;;4.13;;
45198;SDS011;30941;46.422;18.772;2024-02-21T10:49:29;10.50;;;4.55;;
45198;SDS011;30941;46.422;18.772;2024-02-21T10:52:14;11.23;;;3.65;;
45198;SDS011;30941;46.422;18.772;2024-02-21T10:57:15;8.75;;;3.50;;
45198;SDS011;30941;46.422;18.772;2024-02-21T10:59:41;10.65;;;3.25;;
45198;SDS011;30941;46.422;18.772;2024-02-21T11:02:09;8.55;;;3.65;;
45198;SDS011;30941;46.422;18.772;2024-02-21T11:04:35;9.70;;;3.10;;
45198;SDS011;30941;46.422;18.772;2024-02-21T11:07:01;12.63;;;4.15;;
45198;SDS011;30941;46.422;18.772;2024-02-21T11:09:30;12.32;;;4.13;;
45198;SDS011;30941;46.422;18.772;2024-02-21T11:12:03;12.40;;;4.18;;
45198;SDS011;30941;46.422;18.772;2024-02-21T11:14:31;13.13;;;3.88;;
45198;SDS011;30941;46.422;18.772;2024-02-21T11:17:14;12.65;;;4.30;;
45198;SDS011;30941;46.422;18.772;2024-02-21T11:19:43;11.02;;;4.18;;
45198;SDS011;30941;46.422;18.772;2024-02-21T11:22:15;13.05;;;3.90;;
45198;SDS011;30941;46.422;18.772;2024-02-21T11:24:42;6.60;;;3.25;;
45198;SDS011;30941;46.422;18.772;2024-02-21T11:27:08;8.05;;;3.58;;
45198;SDS011;30941;46.422;18.772;2024-02-21T11:29:39;11.50;;;3.28;;
45198;SDS011;30941;46.422;18.772;2024-02-21T11:32:09;9.30;;;3.30;;
45198;SDS011;30941;46.422;18.772;2024-02-21T11:34:36;10.57;;;3.83;;
45198;SDS011;30941;46.422;18.772;2024-02-21T11:37:01;9.38;;;3.63;;
45198;SDS011;30941;46.422;18.772;2024-02-21T11:39:27;13.75;;;4.53;;
45198;SDS011;30941;46.422;18.772;2024-02-21T11:42:06;8.00;;;3.40;;
45198;SDS011;30941;46.422;18.772;2024-02-21T11:44:35;10.60;;;3.43;;
45198;SDS011;30941;46.422;18.772;2024-02-21T11:47:02;8.50;;;3.13;;
45198;SDS011;30941;46.422;18.772;2024-02-21T11:49:28;9.18;;;3.50;;
45198;SDS011;30941;46.422;18.772;2024-02-21T11:52:00;9.00;;;3.60;;
45198;SDS011;30941;46.422;18.772;2024-02-21T11:54:29;10.25;;;3.63;;
45198;SDS011;30941;46.422;18.772;2024-02-21T11:56:54;10.35;;;3.70;;
45198;SDS011;30941;46.422;18.772;2024-02-21T11:59:20;7.93;;;3.63;;
45198;SDS011;30941;46.422;18.772;2024-02-21T12:01:46;10.20;;;3.42;;
45198;SDS011;30941;46.422;18.772;2024-02-21T12:04:11;8.50;;;3.50;;
45198;SDS011;30941;46.422;18.772;2024-02-21T12:06:37;7.72;;;3.45;;
45198;SDS011;30941;46.422;18.772;2024-02-21T12:09:05;7.63;;;3.58;;
45198;SDS011;30941;46.422;18.772;2024-02-21T12:11:34;8.10;;;3.08;;
45198;SDS011;30941;46.422;18.772;2024-02-21T12:14:02;7.45;;;2.85;;
45198;SDS011;30941;46.422;18.772;2024-02-21T12:16:29;6.63;;;2.90;;
45198;SDS011;30941;46.422;18.772;2024-02-21T12:18:56;8.70;;;3.63;;
45198;SDS011;30941;46.422;18.772;2024-02-21T12:21:25;8.73;;;3.22;;
45198;SDS011;30941;46.422;18.772;2024-02-21T12:23:53;7.90;;;3.10;;
45198;SDS011;30941;46.422;18.772;2024-02-21T12:26:21;8.38;;;3.55;;
45198;SDS011;30941;46.422;18.772;2024-02-21T12:28:47;8.15;;;2.65;;
45198;SDS011;30941;46.422;18.772;2024-02-21T12:31:12;6.50;;;2.75;;
45198;SDS011;30941;46.422;18.772;2024-02-21T12:33:38;8.90;;;2.78;;
45198;SDS011;30941;46.422;18.772;2024-02-21T12:36:03;7.95;;;2.60;;
45198;SDS011;30941;46.422;18.772;2024-02-21T12:38:29;7.80;;;3.40;;
45198;SDS011;30941;46.422;18.772;2024-02-21T12:40:54;18.83;;;3.05;;
45198;SDS011;30941;46.422;18.772;2024-02-21T12:43:22;6.82;;;2.85;;
45198;SDS011;30941;46.422;18.772;2024-02-21T12:45:47;8.23;;;2.22;;
45198;SDS011;30941;46.422;18.772;2024-02-21T12:48:13;6.03;;;2.30;;
45198;SDS011;30941;46.422;18.772;2024-02-21T12:50:39;8.63;;;2.92;;
45198;SDS011;30941;46.422;18.772;2024-02-21T12:53:05;9.70;;;2.63;;
45198;SDS011;30941;46.422;18.772;2024-02-21T12:55:30;7.63;;;2.80;;
45198;SDS011;30941;46.422;18.772;2024-02-21T12:57:55;7.25;;;2.67;;
45198;SDS011;30941;46.422;18.772;2024-02-21T13:00:22;9.45;;;3.80;;
45198;SDS011;30941;46.422;18.772;2024-02-21T13:02:51;4.70;;;2.75;;
45198;SDS011;30941;46.422;18.772;2024-02-21T13:05:16;8.88;;;3.60;;
45198;SDS011;30941;46.422;18.772;2024-02-21T13:07:42;10.23;;;3.35;;
45198;SDS011;30941;46.422;18.772;2024-02-21T13:10:07;9.65;;;3.83;;
45198;SDS011;30941;46.422;18.772;2024-02-21T13:12:33;6.80;;;3.08;;
45198;SDS011;30941;46.422;18.772;2024-02-21T13:14:58;6.32;;;2.85;;
45198;SDS011;30941;46.422;18.772;2024-02-21T13:17:24;12.48;;;5.07;;
45198;SDS011;30941;46.422;18.772;2024-02-21T13:19:55;7.25;;;2.70;;
45198;SDS011;30941;46.422;18.772;2024-02-21T13:22:20;4.95;;;2.88;;
45198;SDS011;30941;46.422;18.772;2024-02-21T13:24:47;8.25;;;3.53;;
45198;SDS011;30941;46.422;18.772;2024-02-21T13:27:12;7.43;;;2.40;;
45198;SDS011;30941;46.422;18.772;2024-02-21T13:29:38;6.63;;;3.35;;
45198;SDS011;30941;46.422;18.772;2024-02-21T13:32:03;7.68;;;2.58;;
45198;SDS011;30941;46.422;18.772;2024-02-21T13:34:28;5.13;;;2.83;;
45198;SDS011;30941;46.422;18.772;2024-02-21T13:36:54;8.75;;;4.40;;
45198;SDS011;30941;46.422;18.772;2024-02-21T13:39:19;10.93;;;5.35;;
45198;SDS011;30941;46.422;18.772;2024-02-21T13:41:44;9.38;;;4.50;;
45198;SDS011;30941;46.422;18.772;2024-02-21T13:44:11;11.23;;;3.40;;
45198;SDS011;30941;46.422;18.772;2024-02-21T13:46:37;9.35;;;4.65;;
45198;SDS011;30941;46.422;18.772;2024-02-21T13:49:03;7.75;;;2.80;;
45198;SDS011;30941;46.422;18.772;2024-02-21T13:51:30;6.53;;;2.80;;
45198;SDS011;30941;46.422;18.772;2024-02-21T13:53:55;10.32;;;2.83;;
45198;SDS011;30941;46.422;18.772;2024-02-21T13:56:21;8.68;;;2.60;;
45198;SDS011;30941;46.422;18.772;2024-02-21T13:58:47;6.40;;;2.72;;
45198;SDS011;30941;46.422;18.772;2024-02-21T14:01:12;7.40;;;2.40;;
45198;SDS011;30941;46.422;18.772;2024-02-21T14:03:37;5.72;;;2.40;;
45198;SDS011;30941;46.422;18.772;2024-02-21T14:06:03;8.55;;;2.88;;
45198;SDS011;30941;46.422;18.772;2024-02-21T14:08:28;5.70;;;2.08;;
45198;SDS011;30941;46.422;18.772;2024-02-21T14:10:54;7.45;;;2.40;;
45198;SDS011;30941;46.422;18.772;2024-02-21T14:13:20;7.57;;;3.05;;
45198;SDS011;30941;46.422;18.772;2024-02-21T14:15:46;6.55;;;2.40;;
45198;SDS011;30941;46.422;18.772;2024-02-21T14:18:12;6.13;;;2.33;;
45198;SDS011;30941;46.422;18.772;2024-02-21T14:20:38;7.45;;;2.80;;
45198;SDS011;30941;46.422;18.772;2024-02-21T14:23:04;8.32;;;2.97;;
45198;SDS011;30941;46.422;18.772;2024-02-21T14:25:29;8.93;;;3.63;;
45198;SDS011;30941;46.422;18.772;2024-02-21T14:27:55;8.35;;;3.17;;
45198;SDS011;30941;46.422;18.772;2024-02-21T14:30:20;5.55;;;3.00;;